createdAt,value
2019-01-30T00:01:22.959Z,2.47
2019-01-30T00:04:12.338Z,2.48
2019-01-30T00:07:01.626Z,2.53
2019-01-30T00:09:50.683Z,2.60
2019-01-30T00:12:40.071Z,2.55
2019-01-30T00:15:28.921Z,2.60
2019-01-30T00:18:18.350Z,2.54
2019-01-30T00:21:07.747Z,2.57
2019-01-30T00:23:56.931Z,2.53
2019-01-30T00:26:46.584Z,2.61
2019-01-30T00:29:35.611Z,2.48
2019-01-30T00:32:24.911Z,2.51
2019-01-30T00:35:14.607Z,2.45
2019-01-30T00:38:06.391Z,2.43
2019-01-30T00:40:55.671Z,2.37
2019-01-30T00:43:44.877Z,2.67
2019-01-30T00:46:34.097Z,2.56
2019-01-30T00:49:23.175Z,2.41
2019-01-30T00:52:11.936Z,2.59
2019-01-30T00:55:01.463Z,2.61
2019-01-30T00:57:51.076Z,2.73
2019-01-30T01:00:40.244Z,2.78
2019-01-30T01:03:29.335Z,2.60
2019-01-30T01:06:18.126Z,2.41
2019-01-30T01:09:10.606Z,2.33
2019-01-30T01:11:59.404Z,2.45
2019-01-30T01:14:48.874Z,2.49
2019-01-30T01:17:38.333Z,2.56
2019-01-30T01:20:26.849Z,2.47
2019-01-30T01:23:16.635Z,2.29
2019-01-30T01:26:05.834Z,2.30
2019-01-30T01:28:55.153Z,2.29
2019-01-30T01:31:44.781Z,2.03
2019-01-30T01:34:34.140Z,2.16
2019-01-30T01:37:23.401Z,2.25
2019-01-30T01:40:14.994Z,2.18
2019-01-30T01:43:04.385Z,2.43
2019-01-30T01:45:53.734Z,2.34
2019-01-30T01:48:43.326Z,2.11
2019-01-30T01:51:32.249Z,2.26
2019-01-30T01:54:21.397Z,2.19
2019-01-30T01:57:10.290Z,2.37
2019-01-30T01:59:59.571Z,2.24
2019-01-30T02:02:48.846Z,2.42
2019-01-30T02:05:38.158Z,2.36
2019-01-30T02:08:27.678Z,2.24
2019-01-30T02:11:17.324Z,2.30
2019-01-30T02:14:06.384Z,2.32
2019-01-30T02:16:55.163Z,2.32
2019-01-30T02:19:44.270Z,2.42
2019-01-30T02:22:33.551Z,2.44
2019-01-30T02:25:22.975Z,2.39
2019-01-30T02:28:12.257Z,2.51
2019-01-30T02:31:01.644Z,2.54
2019-01-30T02:33:50.738Z,2.64
2019-01-30T02:36:59.127Z,2.84
2019-01-30T02:39:48.372Z,2.48
2019-01-30T02:42:38.698Z,2.51
2019-01-30T02:45:28.093Z,2.43
2019-01-30T02:48:17.978Z,2.58
2019-01-30T02:51:07.136Z,2.75
2019-01-30T02:53:56.382Z,2.65
2019-01-30T02:56:46.048Z,2.57
2019-01-30T02:59:35.706Z,2.62
2019-01-30T03:02:25.589Z,2.49
2019-01-30T03:05:14.756Z,2.41
2019-01-30T03:08:04.615Z,2.34
2019-01-30T03:10:54.094Z,2.45
2019-01-30T03:13:43.379Z,2.40
2019-01-30T03:16:32.212Z,2.31
2019-01-30T03:19:21.464Z,2.52
2019-01-30T03:22:11.111Z,2.41
2019-01-30T03:25:00.567Z,2.46
2019-01-30T03:27:49.965Z,2.47
2019-01-30T03:30:39.231Z,2.48
2019-01-30T03:33:28.518Z,2.51
2019-01-30T03:36:17.769Z,2.27
2019-01-30T03:39:08.597Z,2.36
2019-01-30T03:41:58.198Z,2.37
2019-01-30T03:44:48.922Z,2.25
2019-01-30T03:47:38.605Z,2.29
2019-01-30T03:50:27.910Z,2.53
2019-01-30T03:53:17.280Z,2.59
2019-01-30T03:56:06.665Z,2.71
2019-01-30T03:58:55.964Z,2.72
2019-01-30T04:01:45.406Z,2.58
2019-01-30T04:04:34.289Z,2.55
2019-01-30T04:07:23.559Z,2.74
2019-01-30T04:10:15.618Z,2.99
2019-01-30T04:13:05.294Z,3.09
2019-01-30T04:15:54.505Z,2.95
2019-01-30T04:18:43.782Z,2.94
2019-01-30T04:21:33.337Z,2.86
2019-01-30T04:24:22.839Z,2.88
2019-01-30T04:27:12.106Z,2.79
2019-01-30T04:30:01.709Z,2.73
2019-01-30T04:32:50.885Z,2.87
2019-01-30T04:35:39.638Z,2.99
2019-01-30T04:38:28.896Z,3.06
2019-01-30T04:41:18.708Z,3.48
2019-01-30T04:44:07.974Z,3.63
2019-01-30T04:46:58.266Z,4.32
2019-01-30T04:49:47.735Z,4.66
2019-01-30T04:52:36.385Z,4.38
2019-01-30T04:55:25.619Z,3.96
2019-01-30T04:58:15.091Z,3.75
2019-01-30T05:01:05.084Z,3.81
2019-01-30T05:03:53.854Z,3.68
2019-01-30T05:06:43.188Z,3.60
2019-01-30T05:09:32.773Z,3.47
2019-01-30T05:12:22.376Z,3.35
2019-01-30T05:15:14.349Z,3.22
2019-01-30T05:18:03.992Z,3.24
2019-01-30T05:20:53.480Z,3.25
2019-01-30T05:23:42.726Z,3.06
2019-01-30T05:26:32.049Z,3.07
2019-01-30T05:29:21.638Z,3.06
2019-01-30T05:32:11.130Z,3.01
2019-01-30T05:35:00.394Z,2.98
2019-01-30T05:37:51.449Z,2.90
2019-01-30T05:40:41.118Z,2.84
2019-01-30T05:43:30.531Z,2.83
2019-01-30T05:46:19.789Z,2.82
2019-01-30T05:49:09.471Z,4.19
2019-01-30T05:51:59.028Z,4.04
2019-01-30T05:54:48.644Z,4.56
2019-01-30T05:57:37.608Z,4.46
2019-01-30T06:00:35.622Z,3.85
2019-01-30T06:03:24.866Z,3.73
2019-01-30T06:06:14.590Z,3.49
2019-01-30T06:09:05.182Z,3.42
2019-01-30T06:11:54.041Z,3.33
2019-01-30T06:14:43.330Z,3.20
2019-01-30T06:17:32.643Z,3.09
2019-01-30T06:20:24.483Z,3.18
2019-01-30T06:23:13.711Z,3.07
2019-01-30T06:26:02.855Z,2.94
2019-01-30T06:28:52.226Z,3.12
2019-01-30T06:31:41.644Z,3.14
2019-01-30T06:34:31.083Z,3.12
2019-01-30T06:37:20.285Z,3.13
2019-01-30T06:40:13.124Z,3.10
2019-01-30T06:43:03.003Z,3.23
2019-01-30T06:45:51.871Z,3.22
2019-01-30T06:48:41.131Z,3.13
2019-01-30T06:51:30.679Z,3.14
2019-01-30T06:54:19.953Z,3.27
2019-01-30T06:57:09.237Z,3.35
2019-01-30T06:59:58.538Z,3.51
2019-01-30T07:02:48.118Z,3.53
2019-01-30T07:05:37.558Z,3.39
2019-01-30T07:08:27.039Z,3.77
2019-01-30T07:11:16.484Z,3.79
2019-01-30T07:14:05.939Z,4.01
2019-01-30T07:16:55.446Z,4.28
2019-01-30T07:19:44.266Z,4.53
2019-01-30T07:22:33.558Z,4.78
2019-01-30T07:25:23.293Z,4.79
2019-01-30T07:28:12.961Z,4.95
2019-01-30T07:31:02.129Z,4.85
2019-01-30T07:34:42.145Z,4.27
2019-01-30T07:37:31.621Z,4.32
2019-01-30T07:40:21.548Z,4.19
2019-01-30T07:43:10.886Z,3.85
2019-01-30T07:46:00.181Z,3.67
2019-01-30T07:48:49.621Z,3.76
2019-01-30T07:51:38.788Z,3.35
2019-01-30T07:58:05.909Z,3.59
2019-01-30T08:00:55.779Z,3.55
2019-01-30T08:03:44.892Z,3.79
2019-01-30T08:06:34.131Z,3.68
2019-01-30T08:09:23.738Z,3.71
2019-01-30T08:12:13.184Z,3.81
2019-01-30T08:15:02.218Z,3.65
2019-01-30T08:17:51.748Z,3.59
2019-01-30T08:20:41.310Z,3.58
2019-01-30T08:23:30.853Z,3.62
2019-01-30T08:26:21.051Z,3.55
2019-01-30T08:29:10.843Z,3.56
2019-01-30T08:32:00.587Z,3.60
2019-01-30T08:34:50.476Z,3.62
2019-01-30T08:37:39.927Z,3.62
2019-01-30T08:40:29.322Z,3.47
2019-01-30T08:43:18.938Z,3.51
2019-01-30T08:46:08.235Z,3.61
2019-01-30T08:48:57.456Z,3.74
2019-01-30T08:51:46.713Z,3.85
2019-01-30T08:54:35.544Z,3.89
2019-01-30T08:57:24.816Z,4.14
2019-01-30T09:00:17.012Z,4.25
2019-01-30T09:03:14.575Z,4.75
2019-01-30T09:05:57.369Z,4.97
2019-01-30T09:08:46.718Z,5.14
2019-01-30T09:11:36.285Z,4.79
2019-01-30T09:14:25.605Z,4.55
2019-01-30T09:17:15.084Z,4.66
2019-01-30T09:20:03.885Z,4.98
2019-01-30T09:22:53.130Z,4.81
2019-01-30T09:25:42.402Z,4.98
2019-01-30T09:28:31.540Z,5.30
2019-01-30T09:31:20.806Z,5.08
2019-01-30T09:34:10.415Z,5.40
2019-01-30T09:36:59.754Z,5.27
2019-01-30T09:39:49.151Z,5.17
2019-01-30T09:42:38.400Z,5.27
2019-01-30T09:45:28.142Z,5.58
2019-01-30T09:48:17.517Z,5.79
2019-01-30T09:51:06.775Z,6.11
2019-01-30T09:53:58.620Z,6.41
2019-01-30T09:56:47.946Z,6.70
2019-01-30T09:59:37.530Z,6.33
2019-01-30T10:02:27.062Z,5.89
2019-01-30T10:05:16.656Z,6.17
2019-01-30T10:08:06.717Z,6.15
2019-01-30T10:10:56.344Z,5.84
2019-01-30T10:13:45.176Z,5.74
2019-01-30T10:16:34.494Z,5.98
2019-01-30T10:19:23.804Z,5.87
2019-01-30T10:22:13.106Z,5.87
2019-01-30T10:25:02.682Z,5.99
2019-01-30T10:27:51.950Z,6.17
2019-01-30T10:30:43.499Z,6.23
2019-01-30T10:33:32.957Z,6.53
2019-01-30T10:36:22.577Z,6.61
2019-01-30T10:39:13.389Z,7.03
2019-01-30T10:42:02.857Z,6.82
2019-01-30T10:44:52.219Z,6.81
2019-01-30T10:47:41.686Z,6.31
2019-01-30T10:50:31.422Z,5.80
2019-01-30T10:53:20.963Z,5.85
2019-01-30T10:56:10.410Z,5.24
2019-01-30T10:58:59.803Z,5.48
2019-01-30T11:01:49.178Z,5.40
2019-01-30T11:04:37.972Z,5.21
2019-01-30T11:07:27.411Z,5.39
2019-01-30T11:10:18.097Z,5.10
2019-01-30T11:13:08.166Z,4.79
2019-01-30T11:15:57.574Z,4.91
2019-01-30T11:18:46.926Z,5.01
2019-01-30T11:21:36.060Z,4.81
2019-01-30T11:24:25.112Z,4.59
2019-01-30T11:27:14.742Z,4.61
2019-01-30T11:30:04.787Z,4.74
2019-01-30T11:32:55.573Z,4.78
2019-01-30T11:35:44.873Z,5.01
2019-01-30T11:38:34.674Z,4.93
2019-01-30T11:41:24.127Z,4.85
2019-01-30T11:44:13.297Z,4.93
2019-01-30T11:47:02.746Z,4.87
2019-01-30T11:49:52.313Z,4.79
2019-01-30T11:52:41.824Z,4.81
2019-01-30T11:55:31.093Z,4.75
2019-01-30T11:58:19.882Z,4.67
2019-01-30T12:01:09.237Z,4.61
2019-01-30T12:03:58.755Z,4.59
2019-01-30T12:06:48.662Z,4.79
2019-01-30T12:09:37.676Z,4.49
2019-01-30T12:12:26.762Z,4.50
2019-01-30T12:15:17.750Z,4.57
2019-01-30T12:18:06.901Z,4.23
2019-01-30T12:20:56.495Z,4.46
2019-01-30T12:23:45.801Z,4.43
2019-01-30T12:26:35.101Z,4.02
2019-01-30T12:29:25.821Z,4.10
2019-01-30T12:32:15.226Z,4.04
2019-01-30T12:35:05.628Z,3.90
2019-01-30T12:37:54.446Z,3.93
2019-01-30T12:40:44.054Z,3.97
2019-01-30T12:43:33.811Z,3.69
2019-01-30T12:46:23.221Z,3.51
2019-01-30T12:49:12.469Z,3.72
2019-01-30T12:52:01.782Z,3.66
2019-01-30T12:54:51.106Z,3.70
2019-01-30T12:57:22.092Z,3.59
2019-01-30T12:59:53.148Z,3.63
2019-01-30T13:02:24.059Z,3.81
2019-01-30T13:04:54.965Z,4.06
2019-01-30T13:07:25.840Z,3.89
2019-01-30T13:09:56.888Z,4.02
2019-01-30T13:12:27.824Z,4.21
2019-01-30T13:14:58.692Z,4.36
2019-01-30T13:17:29.642Z,4.44
2019-01-30T13:20:00.639Z,4.28
2019-01-30T13:22:31.734Z,4.04
2019-01-30T13:25:02.617Z,3.93
2019-01-30T13:27:33.604Z,4.16
2019-01-30T13:30:06.088Z,4.22
2019-01-30T13:32:36.958Z,4.28
2019-01-30T13:35:08.335Z,4.35
2019-01-30T13:37:39.193Z,4.50
2019-01-30T13:40:16.774Z,4.57
2019-01-30T13:42:47.818Z,4.78
2019-01-30T13:45:19.172Z,4.75
2019-01-30T13:47:50.421Z,4.81
2019-01-30T13:50:22.757Z,4.77
2019-01-30T13:52:53.806Z,4.52
2019-01-30T13:55:24.799Z,4.49
2019-01-30T13:57:55.760Z,4.37
2019-01-30T14:00:31.841Z,4.22
2019-01-30T14:03:03.026Z,4.04
2019-01-30T14:05:34.219Z,3.99
2019-01-30T14:08:07.216Z,3.99
2019-01-30T14:10:38.089Z,3.71
2019-01-30T14:13:12.076Z,3.80
2019-01-30T14:15:42.992Z,3.55
2019-01-30T14:18:13.971Z,3.45
2019-01-30T14:20:44.861Z,3.35
2019-01-30T14:23:15.712Z,3.18
2019-01-30T14:25:46.848Z,3.38
2019-01-30T14:28:17.708Z,3.17
2019-01-30T14:30:53.081Z,3.01
2019-01-30T14:33:24.184Z,3.29
2019-01-30T14:35:55.126Z,3.47
2019-01-30T14:38:26.096Z,3.40
2019-01-30T14:40:56.984Z,3.28
2019-01-30T14:43:27.856Z,3.25
2019-01-30T14:45:58.786Z,3.38
2019-01-30T14:48:29.795Z,3.45
2019-01-30T14:51:00.797Z,3.43
2019-01-30T14:53:31.654Z,3.45
2019-01-30T14:56:02.535Z,3.48
2019-01-30T14:58:33.659Z,3.49
2019-01-30T15:01:06.947Z,3.28
2019-01-30T15:03:38.242Z,3.16
2019-01-30T15:06:09.210Z,3.01
2019-01-30T15:08:40.125Z,2.77
2019-01-30T15:11:11.870Z,2.86
2019-01-30T15:13:42.979Z,2.80
2019-01-30T15:16:13.870Z,2.70
2019-01-30T15:18:44.877Z,2.61
2019-01-30T15:21:15.826Z,2.32
2019-01-30T15:23:46.691Z,2.48
2019-01-30T15:26:17.577Z,2.60
2019-01-30T15:28:48.560Z,2.56
2019-01-30T15:31:19.459Z,2.24
2019-01-30T15:33:50.446Z,2.35
2019-01-30T15:36:21.409Z,2.46
2019-01-30T15:38:52.621Z,2.43
2019-01-30T15:41:23.526Z,2.92
2019-01-30T15:43:54.523Z,2.68
2019-01-30T15:46:25.478Z,2.64
2019-01-30T15:48:56.495Z,2.58
2019-01-30T15:51:27.416Z,2.54
2019-01-30T15:53:58.310Z,2.55
2019-01-30T15:56:29.201Z,2.62
2019-01-30T15:59:00.248Z,2.63
2019-01-30T16:01:37.852Z,2.64
2019-01-30T16:04:10.423Z,2.70
2019-01-30T16:06:41.602Z,2.68
2019-01-30T16:09:12.586Z,2.48
2019-01-30T16:11:43.692Z,2.35
2019-01-30T16:14:16.146Z,2.47
2019-01-30T16:16:47.144Z,2.54
2019-01-30T16:19:18.038Z,2.30
2019-01-30T16:21:48.914Z,2.06
2019-01-30T16:24:19.884Z,2.28
2019-01-30T16:26:52.416Z,2.55
2019-01-30T16:29:23.293Z,2.56
2019-01-30T16:31:54.300Z,2.58
2019-01-30T16:34:25.397Z,2.60
2019-01-30T16:36:56.270Z,2.58
2019-01-30T16:39:29.149Z,2.67
2019-01-30T16:41:59.856Z,2.69
2019-01-30T16:44:30.737Z,2.42
2019-01-30T16:47:01.762Z,2.17
2019-01-30T16:49:32.735Z,2.11
2019-01-30T16:52:03.748Z,2.25
2019-01-30T16:54:34.719Z,2.31
2019-01-30T16:57:05.851Z,2.15
2019-01-30T16:59:36.860Z,2.20
2019-01-30T17:02:07.821Z,2.33
2019-01-30T17:04:38.714Z,2.37
2019-01-30T17:07:12.998Z,2.44
2019-01-30T17:09:43.961Z,2.46
2019-01-30T17:12:14.974Z,2.53
2019-01-30T17:14:45.975Z,2.29
2019-01-30T17:17:17.115Z,1.93
2019-01-30T17:19:48.081Z,1.86
2019-01-30T17:22:24.814Z,1.75
2019-01-30T17:25:12.763Z,1.78
2019-01-30T17:27:43.824Z,1.74
2019-01-30T17:30:24.534Z,1.95
2019-01-30T17:32:55.443Z,1.90
2019-01-30T17:35:29.857Z,1.84
2019-01-30T17:38:00.878Z,2.06
2019-01-30T17:40:31.769Z,2.21
2019-01-30T17:43:02.988Z,1.91
2019-01-30T17:45:33.981Z,1.92
2019-01-30T17:48:05.631Z,1.84
2019-01-30T17:50:37.491Z,3.09
2019-01-30T17:53:08.419Z,3.01
2019-01-30T17:55:39.317Z,2.76
2019-01-30T17:58:10.489Z,2.68
2019-01-30T18:00:53.190Z,2.60
2019-01-30T18:03:29.119Z,2.55
2019-01-30T18:06:00.090Z,2.43
2019-01-30T18:08:31.066Z,2.40
2019-01-30T18:11:01.994Z,2.39
2019-01-30T18:13:32.910Z,2.39
2019-01-30T18:16:04.247Z,2.27
2019-01-30T18:18:35.133Z,2.25
2019-01-30T18:21:06.109Z,2.32
2019-01-30T18:23:37.275Z,2.39
2019-01-30T18:26:08.308Z,2.38
2019-01-30T18:28:39.230Z,2.31
2019-01-30T18:31:10.152Z,2.31
2019-01-30T18:33:41.028Z,2.19
2019-01-30T18:36:12.040Z,2.08
2019-01-30T18:38:42.911Z,1.95
2019-01-30T18:41:13.799Z,1.92
2019-01-30T18:43:45.547Z,2.02
2019-01-30T18:46:16.562Z,1.99
2019-01-30T18:48:55.284Z,1.79
2019-01-30T18:51:25.323Z,1.95
2019-01-30T18:53:56.471Z,1.84
2019-01-30T18:56:27.724Z,1.68
2019-01-30T18:58:58.656Z,1.57
2019-01-30T19:01:30.022Z,1.49
2019-01-30T19:04:01.049Z,1.62
2019-01-30T19:06:32.041Z,1.81
2019-01-30T19:09:05.072Z,2.25
2019-01-30T19:11:36.124Z,2.90
2019-01-30T19:14:10.563Z,3.11
2019-01-30T19:16:41.830Z,3.14
2019-01-30T19:19:12.970Z,2.94
2019-01-30T19:21:44.121Z,2.83
2019-01-30T19:24:19.875Z,2.49
2019-01-30T19:26:53.148Z,2.43
2019-01-30T19:29:24.078Z,2.45
2019-01-30T19:31:55.316Z,2.31
2019-01-30T19:34:26.477Z,2.19
2019-01-30T19:37:03.545Z,2.01
2019-01-30T19:39:36.377Z,2.11
2019-01-30T19:42:07.435Z,2.24
2019-01-30T19:44:38.711Z,2.25
2019-01-30T19:47:09.756Z,2.02
2019-01-30T19:49:41.149Z,1.95
2019-01-30T19:52:12.481Z,2.00
2019-01-30T19:54:44.827Z,1.99
2019-01-30T19:57:17.972Z,2.05
2019-01-30T19:59:54.451Z,2.23
2019-01-30T20:02:30.819Z,2.20
2019-01-30T20:05:06.908Z,2.29
2019-01-30T20:07:41.362Z,2.23
2019-01-30T20:10:30.952Z,2.25
2019-01-30T20:13:04.655Z,2.14
2019-01-30T20:15:38.448Z,2.03
2019-01-30T20:18:11.882Z,1.68
2019-01-30T20:20:44.123Z,1.45
2019-01-30T20:23:17.796Z,1.46
2019-01-30T20:25:49.005Z,1.65
2019-01-30T20:28:20.138Z,1.76
2019-01-30T20:30:51.578Z,1.84
2019-01-30T20:33:22.769Z,1.72
2019-01-30T20:35:53.690Z,1.54
2019-01-30T20:38:24.677Z,1.65
2019-01-30T20:40:55.902Z,1.61
2019-01-30T20:43:31.794Z,1.80
2019-01-30T20:46:05.775Z,1.87
2019-01-30T20:48:47.203Z,1.73
2019-01-30T20:51:12.091Z,1.55
2019-01-30T20:53:47.319Z,1.63
2019-01-30T20:56:20.113Z,1.79
2019-01-30T20:59:09.727Z,1.96
2019-01-30T21:01:59.618Z,2.05
2019-01-30T21:04:49.316Z,1.95
2019-01-30T21:08:13.964Z,1.68
2019-01-30T21:11:02.918Z,1.51
2019-01-30T21:13:51.819Z,1.43
2019-01-30T21:16:42.351Z,1.55
2019-01-30T21:19:32.043Z,1.81
2019-01-30T21:22:23.729Z,1.78
2019-01-30T21:25:15.950Z,1.78
2019-01-30T21:28:07.798Z,1.62
2019-01-30T21:30:57.209Z,1.85
2019-01-30T21:33:46.491Z,1.83
2019-01-30T21:36:35.839Z,1.70
2019-01-30T21:39:25.436Z,1.65
2019-01-30T21:42:14.798Z,1.67
2019-01-30T21:45:04.346Z,1.67
2019-01-30T21:47:53.539Z,1.97
2019-01-30T21:50:42.656Z,1.99
2019-01-30T21:53:32.787Z,1.90
2019-01-30T21:56:22.020Z,1.97
2019-01-30T21:59:11.509Z,2.08
2019-01-30T22:02:08.001Z,1.94
2019-01-30T22:04:51.939Z,2.10
2019-01-30T22:07:41.501Z,2.05
2019-01-30T22:10:34.160Z,1.73
2019-01-30T22:13:23.217Z,1.38
2019-01-30T22:16:12.333Z,1.37
2019-01-30T22:19:01.674Z,1.45
2019-01-30T22:21:50.962Z,1.42
2019-01-30T22:24:40.492Z,1.55
2019-01-30T22:27:29.340Z,1.57
2019-01-30T22:30:32.805Z,1.58
2019-01-30T22:33:22.349Z,1.61
2019-01-30T22:36:11.988Z,1.77
2019-01-30T22:39:01.095Z,1.85
2019-01-30T22:41:50.670Z,1.85
2019-01-30T22:44:40.039Z,1.84
2019-01-30T22:47:29.302Z,1.84
2019-01-30T22:50:19.435Z,1.84
2019-01-30T22:53:09.292Z,1.81
2019-01-30T22:55:58.680Z,1.88
2019-01-30T22:58:48.327Z,1.99
2019-01-30T23:02:00.608Z,1.96
2019-01-30T23:05:20.588Z,1.80
2019-01-30T23:08:27.613Z,1.65
2019-01-30T23:11:57.551Z,1.79
2019-01-30T23:14:55.273Z,1.86
2019-01-30T23:18:13.279Z,1.81
2019-01-30T23:21:16.514Z,1.95
2019-01-30T23:24:48.248Z,2.06
2019-01-30T23:27:45.745Z,1.93
2019-01-30T23:30:56.477Z,1.87
2019-01-30T23:34:25.686Z,1.96
2019-01-30T23:37:53.033Z,1.90
2019-01-30T23:41:07.655Z,1.44
2019-01-30T23:44:30.882Z,1.18
2019-01-30T23:48:00.027Z,1.05
2019-01-30T23:51:37.514Z,1.22
2019-01-30T23:54:59.054Z,1.35
2019-01-30T23:58:14.611Z,1.48
